createdAt,value
2017-12-10T00:01:34.288Z,86.90
2017-12-10T00:04:01.292Z,96.70
2017-12-10T00:06:27.980Z,43.55
2017-12-10T00:08:54.815Z,16.37
2017-12-10T00:11:21.480Z,19.25
2017-12-10T00:13:48.241Z,92.45
2017-12-10T00:16:14.945Z,20.95
2017-12-10T00:18:41.607Z,27.10
2017-12-10T00:21:08.314Z,26.23
2017-12-10T00:23:34.967Z,21.98
2017-12-10T00:26:01.622Z,15.10
2017-12-10T00:28:28.439Z,12.35
2017-12-10T00:30:55.216Z,10.38
2017-12-10T00:33:25.602Z,12.27
2017-12-10T00:35:52.676Z,18.73
2017-12-10T00:38:19.380Z,10.25
2017-12-10T00:40:46.217Z,14.25
2017-12-10T00:43:12.903Z,18.23
2017-12-10T00:45:39.561Z,13.10
2017-12-10T00:48:06.209Z,8.00
2017-12-10T00:50:34.000Z,10.32
2017-12-10T00:53:14.905Z,7.28
2017-12-10T00:55:43.356Z,10.68
2017-12-10T00:58:09.997Z,9.07
2017-12-10T01:00:37.671Z,8.25
2017-12-10T01:03:05.965Z,12.05
2017-12-10T01:05:34.512Z,11.15
2017-12-10T01:08:03.754Z,10.90
2017-12-10T01:10:35.140Z,10.65
2017-12-10T01:13:06.173Z,10.13
2017-12-10T01:15:35.456Z,11.40
2017-12-10T01:18:05.149Z,12.20
2017-12-10T01:20:36.521Z,9.70
2017-12-10T01:23:04.868Z,9.77
2017-12-10T01:25:33.175Z,9.02
2017-12-10T01:28:02.651Z,13.25
2017-12-10T01:30:33.151Z,8.77
2017-12-10T01:33:08.906Z,7.45
2017-12-10T01:35:35.733Z,7.22
2017-12-10T01:38:05.568Z,8.90
2017-12-10T01:40:34.267Z,11.07
2017-12-10T01:43:02.534Z,8.87
2017-12-10T01:45:33.252Z,12.93
2017-12-10T01:48:03.509Z,10.57
2017-12-10T01:50:31.485Z,10.70
2017-12-10T01:53:03.220Z,9.82
2017-12-10T01:55:40.606Z,10.60
2017-12-10T01:58:08.117Z,7.70
2017-12-10T02:00:35.929Z,9.85
2017-12-10T02:03:04.341Z,12.77
2017-12-10T02:05:31.544Z,6.57
2017-12-10T02:07:58.346Z,9.40
2017-12-10T02:10:25.775Z,9.45
2017-12-10T02:12:52.799Z,9.88
2017-12-10T02:15:19.477Z,8.70
2017-12-10T02:17:46.140Z,11.12
2017-12-10T02:20:12.793Z,7.53
2017-12-10T02:22:39.461Z,11.30
2017-12-10T02:25:06.161Z,8.65
2017-12-10T02:27:32.841Z,13.32
2017-12-10T02:29:59.769Z,12.80
2017-12-10T02:32:26.577Z,9.85
2017-12-10T02:34:53.351Z,12.23
2017-12-10T02:37:20.048Z,11.13
2017-12-10T02:39:47.138Z,12.27
2017-12-10T02:42:13.845Z,10.63
2017-12-10T02:44:40.522Z,14.50
2017-12-10T02:47:07.173Z,9.85
2017-12-10T02:49:33.841Z,12.50
2017-12-10T02:52:00.630Z,13.60
2017-12-10T02:54:33.264Z,9.75
2017-12-10T02:57:00.650Z,15.57
2017-12-10T02:59:32.602Z,6.55
2017-12-10T03:02:00.451Z,10.52
2017-12-10T03:04:27.191Z,9.67
2017-12-10T03:07:01.708Z,10.27
2017-12-10T03:09:29.089Z,13.32
2017-12-10T03:12:02.789Z,10.25
2017-12-10T03:14:35.006Z,12.65
2017-12-10T03:17:04.737Z,12.65
2017-12-10T03:19:36.681Z,15.00
2017-12-10T03:22:09.244Z,13.00
2017-12-10T03:24:35.890Z,8.63
2017-12-10T03:27:05.391Z,7.45
2017-12-10T03:29:35.770Z,11.80
2017-12-10T03:32:05.392Z,9.40
2017-12-10T03:34:35.905Z,7.70
2017-12-10T03:37:05.325Z,7.35
2017-12-10T03:39:36.140Z,5.45
2017-12-10T03:42:04.756Z,5.03
2017-12-10T03:44:34.369Z,8.15
2017-12-10T03:47:03.945Z,5.80
2017-12-10T03:49:36.278Z,6.32
2017-12-10T03:52:04.644Z,8.40
2017-12-10T03:54:34.583Z,8.55
2017-12-10T03:57:05.809Z,5.97
2017-12-10T03:59:35.299Z,10.63
2017-12-10T04:02:04.048Z,8.52
2017-12-10T04:04:32.997Z,6.70
2017-12-10T04:07:03.723Z,6.57
2017-12-10T04:09:36.785Z,9.38
2017-12-10T04:12:04.888Z,7.37
2017-12-10T04:14:35.796Z,7.97
2017-12-10T04:17:06.312Z,10.90
2017-12-10T04:19:36.129Z,7.90
2017-12-10T04:22:09.369Z,10.68
2017-12-10T04:24:36.013Z,8.32
2017-12-10T04:27:06.320Z,11.10
2017-12-10T04:29:35.300Z,8.43
2017-12-10T04:32:03.338Z,8.05
2017-12-10T04:34:34.401Z,6.20
2017-12-10T04:37:06.152Z,5.62
2017-12-10T04:39:35.834Z,12.05
2017-12-10T04:42:04.784Z,8.50
2017-12-10T04:44:35.104Z,8.95
2017-12-10T04:47:04.164Z,7.07
2017-12-10T04:49:36.381Z,8.85
2017-12-10T04:52:05.409Z,9.93
2017-12-10T04:54:34.805Z,7.85
2017-12-10T04:57:04.446Z,6.12
2017-12-10T04:59:44.301Z,6.47
2017-12-10T05:02:11.191Z,4.35
2017-12-10T05:04:37.822Z,6.87
2017-12-10T05:07:06.363Z,5.97
2017-12-10T05:09:36.655Z,5.07
2017-12-10T05:12:06.449Z,8.10
2017-12-10T05:14:34.796Z,5.75
2017-12-10T05:17:05.793Z,7.40
2017-12-10T05:19:35.785Z,6.70
2017-12-10T05:22:04.886Z,7.37
2017-12-10T05:24:43.352Z,6.95
2017-12-10T05:27:10.400Z,7.62
2017-12-10T05:29:37.075Z,12.35
2017-12-10T05:32:04.877Z,9.68
2017-12-10T05:34:34.940Z,13.40
2017-12-10T05:37:05.921Z,7.87
2017-12-10T05:39:35.414Z,9.07
2017-12-10T05:42:03.701Z,8.15
2017-12-10T05:44:35.485Z,10.25
2017-12-10T05:47:09.340Z,8.48
2017-12-10T05:49:36.613Z,6.18
2017-12-10T05:52:05.300Z,12.05
2017-12-10T05:54:36.288Z,7.45
2017-12-10T05:57:11.561Z,5.20
2017-12-10T05:59:38.233Z,8.27
2017-12-10T06:02:06.409Z,6.45
2017-12-10T06:04:35.420Z,9.43
2017-12-10T06:07:16.848Z,4.62
2017-12-10T06:09:43.526Z,9.43
2017-12-10T06:12:12.313Z,8.10
2017-12-10T06:14:38.955Z,6.50
2017-12-10T06:17:05.620Z,4.85
2017-12-10T06:19:34.909Z,5.97
2017-12-10T06:22:04.589Z,4.35
2017-12-10T06:24:35.941Z,4.85
2017-12-10T06:27:04.527Z,7.45
2017-12-10T06:29:34.548Z,5.20
2017-12-10T06:32:02.479Z,6.65
2017-12-10T06:34:43.613Z,9.13
2017-12-10T06:37:10.372Z,13.27
2017-12-10T06:39:37.022Z,8.98
2017-12-10T06:42:06.340Z,9.23
2017-12-10T06:44:36.333Z,4.90
2017-12-10T06:47:05.472Z,11.38
2017-12-10T06:49:35.973Z,4.65
2017-12-10T06:52:04.976Z,7.40
2017-12-10T06:54:36.898Z,7.68
2017-12-10T06:57:04.893Z,12.73
2017-12-10T06:59:34.861Z,6.85
2017-12-10T07:02:05.021Z,7.53
2017-12-10T07:04:38.201Z,4.55
2017-12-10T07:07:07.865Z,8.07
2017-12-10T07:09:35.461Z,8.77
2017-12-10T07:12:03.337Z,10.02
2017-12-10T07:14:35.656Z,6.40
2017-12-10T07:17:05.356Z,5.68
2017-12-10T07:19:37.917Z,6.75
2017-12-10T07:22:05.513Z,10.80
2017-12-10T07:24:36.065Z,7.62
2017-12-10T07:27:05.057Z,6.95
2017-12-10T07:29:33.356Z,12.73
2017-12-10T07:32:06.377Z,5.90
2017-12-10T07:34:36.127Z,10.77
2017-12-10T07:37:14.087Z,7.47
2017-12-10T07:39:41.068Z,5.65
2017-12-10T07:42:07.722Z,7.90
2017-12-10T07:44:36.101Z,8.43
2017-12-10T07:47:06.524Z,10.77
2017-12-10T07:49:36.609Z,8.52
2017-12-10T07:52:06.800Z,9.38
2017-12-10T07:54:47.874Z,6.95
2017-12-10T07:57:15.063Z,7.28
2017-12-10T07:59:41.721Z,10.90
2017-12-10T08:02:08.388Z,11.25
2017-12-10T08:04:36.669Z,6.25
2017-12-10T08:07:06.709Z,10.43
2017-12-10T08:09:35.552Z,7.10
2017-12-10T08:12:06.096Z,6.20
2017-12-10T08:14:48.761Z,6.25
2017-12-10T08:17:15.426Z,6.53
2017-12-10T08:19:43.094Z,7.18
2017-12-10T08:22:09.754Z,7.65
2017-12-10T08:24:36.401Z,8.20
2017-12-10T08:27:04.684Z,6.03
2017-12-10T08:29:34.157Z,7.82
2017-12-10T08:32:05.577Z,4.72
2017-12-10T08:34:35.564Z,7.57
2017-12-10T08:37:05.412Z,4.90
2017-12-10T08:39:38.133Z,6.25
2017-12-10T08:42:05.780Z,7.90
2017-12-10T08:44:35.230Z,15.35
2017-12-10T08:47:04.724Z,5.80
2017-12-10T08:49:33.078Z,8.83
2017-12-10T08:52:03.403Z,4.80
2017-12-10T08:54:32.656Z,5.62
2017-12-10T08:57:03.055Z,6.85
2017-12-10T08:59:35.035Z,7.45
2017-12-10T09:02:05.238Z,4.33
2017-12-10T09:04:34.353Z,7.07
2017-12-10T09:07:03.533Z,8.55
2017-12-10T09:09:35.688Z,5.03
2017-12-10T09:12:06.231Z,6.60
2017-12-10T09:14:34.787Z,7.37
2017-12-10T09:17:04.889Z,3.73
2017-12-10T09:19:33.295Z,6.20
2017-12-10T09:22:03.119Z,7.30
2017-12-10T09:24:33.448Z,4.53
2017-12-10T09:27:11.338Z,5.35
2017-12-10T09:29:38.336Z,7.28
2017-12-10T09:32:04.986Z,9.20
2017-12-10T09:34:37.169Z,6.50
2017-12-10T09:37:04.349Z,5.20
2017-12-10T09:39:35.718Z,5.62
2017-12-10T09:42:04.637Z,8.25
2017-12-10T09:44:35.336Z,5.53
2017-12-10T09:47:04.393Z,9.23
2017-12-10T09:49:33.555Z,11.93
2017-12-10T09:52:00.320Z,12.73
2017-12-10T09:54:26.962Z,12.30
2017-12-10T09:56:56.193Z,9.83
2017-12-10T09:59:22.971Z,14.43
2017-12-10T10:01:51.913Z,14.67
2017-12-10T10:04:21.660Z,13.60
2017-12-10T10:06:48.338Z,15.77
2017-12-10T10:09:15.006Z,16.93
2017-12-10T10:11:41.844Z,21.62
2017-12-10T10:14:15.775Z,23.85
2017-12-10T10:16:42.443Z,24.23
2017-12-10T10:19:11.532Z,24.95
2017-12-10T10:21:42.493Z,27.92
2017-12-10T10:24:10.122Z,27.83
2017-12-10T10:26:40.107Z,30.45
2017-12-10T10:29:12.001Z,23.90
2017-12-10T10:31:40.346Z,35.05
2017-12-10T10:34:11.222Z,28.30
2017-12-10T10:36:42.448Z,28.15
2017-12-10T10:39:12.501Z,31.67
2017-12-10T10:41:42.654Z,42.42
2017-12-10T10:44:13.511Z,41.50
2017-12-10T10:46:40.977Z,42.28
2017-12-10T10:49:11.402Z,43.30
2017-12-10T10:51:38.612Z,31.52
2017-12-10T10:54:05.892Z,38.35
2017-12-10T10:56:33.580Z,32.03
2017-12-10T10:59:02.390Z,22.87
2017-12-10T11:01:34.234Z,25.27
2017-12-10T11:04:03.834Z,19.42
2017-12-10T11:06:31.827Z,16.23
2017-12-10T11:09:07.185Z,21.30
2017-12-10T11:11:34.205Z,19.55
2017-12-10T11:14:04.016Z,21.30
2017-12-10T11:16:33.324Z,22.60
2017-12-10T11:19:03.032Z,31.85
2017-12-10T11:21:42.869Z,30.67
2017-12-10T11:24:09.572Z,25.75
2017-12-10T11:26:36.289Z,25.05
2017-12-10T11:29:03.672Z,27.48
2017-12-10T11:31:31.233Z,31.65
2017-12-10T11:34:01.819Z,33.65
2017-12-10T11:36:31.722Z,25.95
2017-12-10T11:39:01.790Z,24.85
2017-12-10T11:41:32.991Z,25.55
2017-12-10T11:44:03.897Z,23.23
2017-12-10T11:46:33.296Z,14.02
2017-12-10T11:49:02.473Z,23.92
2017-12-10T11:51:31.912Z,15.43
2017-12-10T11:53:58.931Z,13.10
2017-12-10T11:56:32.217Z,10.90
2017-12-10T11:59:02.683Z,6.62
2017-12-10T12:01:34.870Z,7.35
2017-12-10T12:04:03.822Z,10.48
2017-12-10T12:06:34.832Z,10.25
2017-12-10T12:09:02.561Z,10.35
2017-12-10T12:11:31.569Z,8.80
2017-12-10T12:14:00.793Z,11.40
2017-12-10T12:16:31.062Z,10.43
2017-12-10T12:19:04.508Z,11.05
2017-12-10T12:21:33.627Z,8.65
2017-12-10T12:24:02.775Z,13.80
2017-12-10T12:26:32.156Z,11.25
2017-12-10T12:29:03.561Z,8.85
2017-12-10T12:31:33.566Z,6.20
2017-12-10T12:34:04.920Z,8.73
2017-12-10T12:36:33.788Z,9.90
2017-12-10T12:39:03.269Z,15.23
2017-12-10T12:41:30.942Z,7.22
2017-12-10T12:44:01.512Z,8.73
2017-12-10T12:46:33.938Z,6.28
2017-12-10T12:49:04.726Z,6.22
2017-12-10T12:51:35.416Z,6.07
2017-12-10T12:54:02.947Z,8.25
2017-12-10T12:56:36.050Z,4.53
2017-12-10T12:59:06.505Z,5.90
2017-12-10T13:01:36.768Z,5.43
2017-12-10T13:04:09.881Z,5.72
2017-12-10T13:06:36.524Z,4.12
2017-12-10T13:09:04.648Z,6.25
2017-12-10T13:11:38.721Z,3.47
2017-12-10T13:14:05.642Z,4.78
2017-12-10T13:16:34.236Z,7.18
2017-12-10T13:19:02.607Z,6.70
2017-12-10T13:21:44.964Z,8.32
2017-12-10T13:24:11.609Z,6.87
2017-12-10T13:26:38.270Z,5.72
2017-12-10T13:29:04.908Z,6.18
2017-12-10T13:34:27.785Z,6.15
2017-12-10T13:37:00.716Z,6.50
2017-12-10T13:39:30.025Z,8.80
2017-12-10T13:42:02.238Z,12.05
2017-12-10T13:44:38.623Z,7.45
2017-12-10T13:47:05.970Z,10.30
2017-12-10T13:49:32.916Z,10.23
2017-12-10T13:52:01.715Z,10.65
2017-12-10T13:54:33.008Z,11.45
2017-12-10T13:57:01.877Z,11.57
2017-12-10T13:59:34.380Z,8.02
2017-12-10T14:02:05.230Z,7.60
2017-12-10T14:04:44.860Z,9.15
2017-12-10T14:07:12.345Z,14.18
2017-12-10T14:09:39.068Z,12.30
2017-12-10T14:12:07.088Z,11.82
2017-12-10T14:14:35.741Z,12.50
2017-12-10T14:17:17.356Z,16.50
2017-12-10T14:19:48.827Z,13.05
2017-12-10T14:22:15.701Z,13.80
2017-12-10T14:24:42.360Z,10.35
2017-12-10T14:27:09.010Z,14.95
2017-12-10T14:29:37.048Z,9.93
2017-12-10T14:32:06.416Z,12.10
2017-12-10T14:34:36.397Z,11.52
2017-12-10T14:37:04.353Z,16.10
2017-12-10T14:39:35.196Z,16.42
2017-12-10T14:42:06.844Z,15.68
2017-12-10T14:44:36.604Z,14.85
2017-12-10T14:47:05.464Z,17.02
2017-12-10T14:49:36.477Z,11.70
2017-12-10T14:52:06.357Z,13.40
2017-12-10T14:54:36.829Z,17.48
2017-12-10T14:57:06.194Z,16.45
2017-12-10T14:59:37.186Z,20.33
2017-12-10T15:02:06.286Z,12.05
2017-12-10T15:04:36.856Z,15.23
2017-12-10T15:07:31.977Z,16.83
2017-12-10T15:10:03.003Z,18.40
2017-12-10T15:12:36.533Z,31.65
2017-12-10T15:15:05.583Z,20.37
2017-12-10T15:17:36.453Z,22.42
2017-12-10T15:20:05.116Z,32.97
2017-12-10T15:22:33.313Z,31.75
2017-12-10T15:25:06.195Z,28.77
2017-12-10T15:27:36.009Z,31.83
2017-12-10T15:30:06.972Z,23.92
2017-12-10T15:32:34.807Z,23.80
2017-12-10T15:35:06.017Z,20.60
2017-12-10T15:37:35.988Z,15.05
2017-12-10T15:40:06.775Z,18.80
2017-12-10T15:42:36.064Z,16.52
2017-12-10T15:45:07.496Z,29.92
2017-12-10T15:47:37.672Z,23.40
2017-12-10T15:50:11.711Z,15.73
2017-12-10T15:52:38.920Z,23.70
2017-12-10T15:55:06.872Z,19.87
2017-12-10T15:57:35.264Z,32.43
2017-12-10T16:00:06.181Z,37.33
2017-12-10T16:02:35.132Z,23.50
2017-12-10T16:05:11.032Z,20.03
2017-12-10T16:07:38.058Z,26.27
2017-12-10T16:10:11.416Z,34.47
2017-12-10T16:12:38.055Z,21.73
2017-12-10T16:15:05.311Z,26.47
2017-12-10T16:17:36.536Z,28.33
2017-12-10T16:20:07.100Z,30.20
2017-12-10T16:22:35.181Z,20.53
2017-12-10T16:25:07.757Z,26.03
2017-12-10T16:27:35.661Z,28.90
2017-12-10T16:30:05.785Z,30.80
2017-12-10T16:32:34.827Z,26.47
2017-12-10T16:35:10.340Z,23.20
2017-12-10T16:37:37.210Z,31.07
2017-12-10T16:40:15.511Z,21.93
2017-12-10T16:45:40.833Z,23.07
2017-12-10T16:48:07.472Z,26.53
2017-12-10T16:50:35.778Z,22.60
2017-12-10T16:53:06.667Z,19.03
2017-12-10T16:55:35.114Z,38.87
2017-12-10T16:58:03.209Z,18.97
2017-12-10T17:00:36.058Z,26.60
2017-12-10T17:03:04.564Z,32.63
2017-12-10T17:05:34.713Z,19.23
2017-12-10T17:08:05.470Z,20.90
2017-12-10T17:10:36.115Z,18.40
2017-12-10T17:13:05.848Z,25.83
2017-12-10T17:15:35.429Z,21.97
2017-12-10T17:18:05.738Z,22.80
2017-12-10T17:20:38.128Z,17.17
2017-12-10T17:23:07.901Z,20.63
2017-12-10T17:25:39.125Z,25.40
2017-12-10T17:28:07.248Z,25.10
2017-12-10T17:30:35.940Z,27.83
2017-12-10T17:33:13.264Z,25.83
2017-12-10T17:35:41.140Z,25.00
2017-12-10T17:38:07.776Z,25.53
2017-12-10T17:40:36.971Z,24.30
2017-12-10T17:43:06.053Z,20.47
2017-12-10T17:45:36.215Z,21.60
2017-12-10T17:48:07.052Z,28.20
2017-12-10T17:50:35.581Z,22.70
2017-12-10T17:53:06.372Z,23.63
2017-12-10T17:55:37.260Z,32.60
2017-12-10T17:58:06.373Z,27.43
2017-12-10T18:00:35.706Z,22.40
2017-12-10T18:03:07.534Z,18.50
2017-12-10T18:05:36.674Z,19.10
2017-12-10T18:08:07.569Z,22.30
2017-12-10T18:10:38.017Z,22.83
2017-12-10T18:13:06.979Z,25.53
2017-12-10T18:15:37.681Z,20.03
2017-12-10T18:18:06.589Z,13.60
2017-12-10T18:20:35.732Z,16.80
2017-12-10T18:23:06.459Z,19.50
2017-12-10T18:25:37.513Z,13.60
2017-12-10T18:28:07.567Z,18.20
2017-12-10T18:30:37.217Z,14.70
2017-12-10T18:33:03.885Z,31.67
2017-12-10T18:35:33.268Z,22.97
2017-12-10T18:38:01.500Z,51.37
2017-12-10T18:40:28.710Z,38.27
2017-12-10T18:42:56.790Z,25.20
2017-12-10T18:45:23.445Z,44.40
2017-12-10T18:47:50.113Z,48.03
2017-12-10T18:50:17.965Z,32.40
2017-12-10T18:52:44.745Z,79.13
2017-12-10T18:55:11.404Z,32.63
2017-12-10T18:57:38.052Z,127.87
2017-12-10T19:00:04.717Z,27.13
2017-12-10T19:02:31.377Z,116.47
2017-12-10T19:05:01.388Z,37.27
2017-12-10T19:07:29.041Z,83.10
2017-12-10T19:09:56.139Z,67.90
2017-12-10T19:12:22.826Z,64.67
2017-12-10T19:14:49.520Z,86.70
2017-12-10T19:17:16.184Z,28.10
2017-12-10T19:19:42.853Z,29.10
2017-12-10T19:22:09.497Z,21.43
2017-12-10T19:24:36.745Z,17.00
2017-12-10T19:27:06.780Z,20.57
2017-12-10T19:29:42.876Z,23.10
2017-12-10T19:32:09.701Z,11.70
2017-12-10T19:34:38.245Z,20.97
2017-12-10T19:37:06.493Z,19.47
2017-12-10T19:39:33.146Z,17.67
2017-12-10T19:42:03.460Z,19.77
2017-12-10T19:44:33.693Z,18.00
2017-12-10T19:47:02.712Z,24.00
2017-12-10T19:49:29.405Z,23.43
2017-12-10T19:52:01.898Z,20.63
2017-12-10T19:54:28.677Z,30.43
2017-12-10T19:56:55.608Z,33.30
2017-12-10T19:59:22.285Z,20.60
2017-12-10T20:01:50.201Z,21.10
2017-12-10T20:04:18.713Z,18.70
2017-12-10T20:06:45.617Z,37.00
2017-12-10T20:09:12.286Z,19.60
2017-12-10T20:11:38.939Z,24.27
2017-12-10T20:14:05.704Z,33.77
2017-12-10T20:16:33.132Z,41.50
2017-12-10T20:18:59.819Z,16.50
2017-12-10T20:21:30.991Z,16.80
2017-12-10T20:23:58.701Z,16.53
2017-12-10T20:26:26.054Z,8.37
2017-12-10T20:28:52.828Z,8.43
2017-12-10T20:31:20.150Z,11.13
2017-12-10T20:33:46.974Z,15.40
2017-12-10T20:36:13.628Z,9.03
2017-12-10T20:38:40.269Z,5.90
2017-12-10T20:41:07.290Z,5.93
2017-12-10T20:43:36.558Z,5.43
2017-12-10T20:46:07.064Z,15.80
2017-12-10T20:48:37.461Z,6.30
2017-12-10T20:51:08.236Z,6.60
2017-12-10T20:53:38.301Z,4.90
2017-12-10T20:56:06.772Z,7.23
2017-12-10T20:58:34.566Z,3.20
2017-12-10T21:01:03.663Z,3.80
2017-12-10T21:03:37.437Z,3.40
2017-12-10T21:06:06.829Z,3.90
2017-12-10T21:08:37.835Z,4.07
2017-12-10T21:11:07.322Z,4.77
2017-12-10T21:13:38.508Z,6.07
2017-12-10T21:16:08.088Z,2.53
2017-12-10T21:18:38.345Z,2.73
2017-12-10T21:21:07.400Z,5.37
2017-12-10T21:23:35.374Z,2.00
2017-12-10T21:26:02.399Z,3.50
2017-12-10T21:28:33.789Z,3.07
2017-12-10T21:31:00.482Z,3.07
2017-12-10T21:33:27.413Z,6.50
2017-12-10T21:35:55.854Z,5.10
2017-12-10T21:38:30.014Z,3.50
2017-12-10T21:41:03.840Z,3.37
2017-12-10T21:43:34.656Z,3.63
2017-12-10T21:46:01.773Z,5.47
2017-12-10T21:48:28.689Z,4.80
2017-12-10T21:50:56.208Z,4.67
2017-12-10T21:53:22.865Z,6.90
2017-12-10T21:55:49.537Z,7.97
2017-12-10T21:58:16.174Z,5.67
2017-12-10T22:00:42.833Z,5.30
2017-12-10T22:03:09.468Z,5.47
2017-12-10T22:05:36.105Z,5.70
2017-12-10T22:08:03.340Z,6.57
2017-12-10T22:10:31.383Z,6.50
2017-12-10T22:12:59.796Z,7.40
2017-12-10T22:15:26.845Z,6.60
2017-12-10T22:17:53.699Z,8.03
2017-12-10T22:20:23.435Z,7.43
2017-12-10T22:22:50.441Z,7.63
2017-12-10T22:25:17.334Z,8.80
2017-12-10T22:27:44.021Z,8.83
2017-12-10T22:30:10.830Z,8.30
2017-12-10T22:32:37.520Z,8.20
2017-12-10T22:35:04.968Z,6.20
2017-12-10T22:37:32.513Z,7.93
2017-12-10T22:40:01.911Z,8.23
2017-12-10T22:42:30.255Z,6.60
2017-12-10T22:44:56.964Z,9.83
2017-12-10T22:47:23.612Z,6.73
2017-12-10T22:49:50.332Z,6.93
2017-12-10T22:52:17.059Z,10.20
2017-12-10T22:54:43.712Z,10.67
2017-12-10T22:57:10.355Z,9.40
2017-12-10T22:59:37.017Z,7.30
2017-12-10T23:02:03.740Z,8.90
2017-12-10T23:04:30.432Z,8.93
2017-12-10T23:06:57.164Z,8.27
2017-12-10T23:09:23.935Z,8.33
2017-12-10T23:11:50.603Z,9.87
2017-12-10T23:14:17.283Z,9.30
2017-12-10T23:16:44.111Z,10.13
2017-12-10T23:19:10.828Z,9.03
2017-12-10T23:21:37.632Z,8.33
2017-12-10T23:24:04.275Z,7.83
2017-12-10T23:26:31.005Z,8.27
2017-12-10T23:28:57.663Z,10.77
2017-12-10T23:31:24.397Z,9.23
2017-12-10T23:33:51.210Z,10.07
2017-12-10T23:36:19.453Z,9.40
2017-12-10T23:38:46.879Z,9.77
2017-12-10T23:41:14.012Z,10.47
2017-12-10T23:43:40.718Z,12.20
2017-12-10T23:46:07.462Z,11.23
2017-12-10T23:48:34.125Z,9.80
2017-12-10T23:51:03.048Z,12.00
2017-12-10T23:53:29.856Z,11.40
2017-12-10T23:55:57.602Z,10.50
2017-12-10T23:58:24.556Z,9.77
